Time;durP1;ratioP1;P1;durP2;ratioP2;P2;SDS_P1;SDS_P2;PMS_P1;PMS_P2;Temp;Humidity;BMP_temperature;BMP_pressure;BME280_temperature;BME280_humidity;BME280_pressure;Samples;Min_cycle;Max_cycle;Signal;HPM_P1;HPM_P2
2021/03/04 06:03:01;;;;;;;11.70;10.50;;;;;;;11.54;40.07;95475.78;4922887;23;20056;-87
2021/03/04 06:05:26;;;;;;;11.20;10.27;;;;;;;11.65;40.27;95466.84;4879072;29;20734;-85
2021/03/04 06:07:52;;;;;;;12.57;10.68;;;;;;;13.72;37.71;95468.72;4894485;29;20048;-81
2021/03/04 06:10:17;;;;;;;13.77;12.23;;;;;;;12.80;36.78;95472.31;4879124;29;20036;-81
2021/03/04 06:12:42;;;;;;;16.33;10.68;;;;;;;11.93;40.07;95464.72;4893536;29;20542;-81
2021/03/04 06:15:09;;;;;;;11.50;10.40;;;;;;;13.05;37.69;95467.75;4879305;29;20835;-84
2021/03/04 06:17:35;;;;;;;15.70;13.60;;;;;;;15.51;33.56;95462.91;4893237;29;20043;-81
2021/03/04 06:20:05;;;;;;;17.35;13.80;;;;;;;16.91;31.44;95469.56;4879183;29;20035;-80
2021/03/04 06:22:35;;;;;;;15.05;13.55;;;;;;;16.76;31.56;95464.50;4877505;29;20099;-81
2021/03/04 06:25:10;;;;;;;16.90;15.20;;;;;;;17.22;30.97;95454.13;4894899;29;20032;-80
2021/03/04 06:27:38;;;;;;;110.68;16.65;;;;;;;17.82;29.97;95459.25;4894812;29;20024;-80
2021/03/04 06:30:08;;;;;;;11.63;10.33;;;;;;;18.03;29.98;95455.59;4878183;29;20485;-80
2021/03/04 06:32:33;;;;;;;14.27;10.85;;;;;;;18.54;30.37;95458.31;4879265;29;20421;-81
2021/03/04 06:35:06;;;;;;;10.85;9.90;;;;;;;18.69;29.43;95455.44;4892807;29;20114;-82
2021/03/04 06:37:32;;;;;;;11.75;10.57;;;;;;;18.97;29.65;95453.31;4911834;29;20103;-81
2021/03/04 06:39:57;;;;;;;10.07;9.38;;;;;;;21.04;26.56;95446.59;4893164;29;20095;-79
2021/03/04 06:42:23;;;;;;;10.90;9.95;;;;;;;21.10;25.98;95445.72;4883422;29;20451;-80
2021/03/04 06:44:54;;;;;;;10.05;9.18;;;;;;;21.17;26.03;95451.72;4872360;29;20493;-80
2021/03/04 06:47:27;;;;;;;11.23;9.32;;;;;;;22.10;25.32;95451.91;4871486;29;20033;-80
2021/03/04 06:49:53;;;;;;;9.73;8.85;;;;;;;22.49;24.78;95445.09;4872618;29;20025;-81
2021/03/04 06:52:28;;;;;;;9.38;8.48;;;;;;;22.23;24.81;95451.69;4855862;29;20036;-81
2021/03/04 06:54:54;;;;;;;10.23;9.07;;;;;;;21.73;24.56;95447.84;4873819;29;20070;-82
2021/03/04 06:57:21;;;;;;;9.30;8.50;;;;;;;22.48;24.89;95436.38;4872013;29;20076;-81
2021/03/04 06:59:46;;;;;;;10.10;9.30;;;;;;;18.49;28.80;95446.81;4856440;29;20033;-80
2021/03/04 07:02:29;;;;;;;9.73;8.85;;;;;;;18.49;28.35;95438.94;4860122;29;20045;-83
2021/03/04 07:04:58;;;;;;;10.55;9.68;;;;;;;15.22;33.58;95443.72;4857653;29;20036;-83
2021/03/04 07:07:27;;;;;;;10.60;9.52;;;;;;;15.87;33.87;95428.81;4860496;29;20119;-81
2021/03/04 07:09:53;;;;;;;;;;;;;;;16.18;32.42;95437.06;4858792;29;20032;-81
2021/03/04 07:12:19;;;;;;;10.45;9.55;;;;;;;17.65;30.67;95442.34;4859715;29;19926;-81
2021/03/04 07:14:46;;;;;;;10.80;9.68;;;;;;;20.07;28.50;95433.53;4849684;29;20085;-81
2021/03/04 07:17:12;;;;;;;10.77;9.77;;;;;;;19.73;28.62;95437.47;4851457;29;20329;-81
2021/03/04 07:19:37;;;;;;;13.50;11.10;;;;;;;15.48;33.77;95426.72;4838107;29;20085;-81
2021/03/04 07:22:03;;;;;;;11.93;10.88;;;;;;;14.11;36.26;95430.22;4813863;29;20414;-82
2021/03/04 07:24:28;;;;;;;11.43;10.43;;;;;;;19.78;30.09;95424.47;4850659;29;20099;-82
2021/03/04 07:26:54;;;;;;;11.45;9.63;;;;;;;21.62;26.76;95414.34;4862602;29;20051;-81
2021/03/04 07:29:21;;;;;;;10.15;9.35;;;;;;;21.78;26.72;95416.31;4871559;29;20410;-80
2021/03/04 07:31:47;;;;;;;9.95;9.02;;;;;;;20.19;29.72;95426.53;4873418;29;20061;-80
2021/03/04 07:34:13;;;;;;;11.77;10.88;;;;;;;17.68;31.79;95414.91;4859646;29;20029;-78
2021/03/04 07:36:39;;;;;;;13.73;11.68;;;;;;;19.10;29.60;95413.84;4846085;29;20029;-81
2021/03/04 07:39:05;;;;;;;18.80;12.30;;;;;;;16.19;34.03;95407.28;4834320;29;20131;-81
2021/03/04 07:41:38;;;;;;;16.20;11.40;;;;;;;20.90;27.07;95398.53;4829740;29;20061;-80
2021/03/04 07:44:04;;;;;;;12.60;11.60;;;;;;;24.77;22.31;95402.09;4823639;29;20655;-80
2021/03/04 07:46:33;;;;;;;13.75;12.55;;;;;;;25.42;21.71;95394.84;4850383;29;20025;-80
2021/03/04 07:49:06;;;;;;;14.85;13.13;;;;;;;24.85;21.72;95391.88;4861429;29;20039;-80
2021/03/04 07:51:44;;;;;;;14.38;13.02;;;;;;;20.81;27.31;95397.25;4844998;29;20125;-80
2021/03/04 07:54:11;;;;;;;14.10;12.75;;;;;;;16.72;34.56;95390.84;4867483;29;20096;-80
2021/03/04 07:56:36;;;;;;;13.65;12.45;;;;;;;15.27;37.46;95398.81;4860060;29;20068;-81
2021/03/04 07:59:11;;;;;;;13.80;12.75;;;;;;;14.01;38.91;95392.41;4861715;29;20478;-82
2021/03/04 08:01:37;;;;;;;13.85;12.65;;;;;;;13.37;41.19;95388.69;4875801;29;20470;-82
2021/03/04 08:04:03;;;;;;;15.27;13.48;;;;;;;12.86;42.29;95388.44;4877444;29;20032;-81
2021/03/04 08:06:28;;;;;;;15.48;13.15;;;;;;;14.11;39.36;95382.53;4840611;29;20029;-80
2021/03/04 08:08:54;;;;;;;17.33;14.45;;;;;;;12.75;42.82;95378.44;4837077;29;20032;-81
2021/03/04 08:11:26;;;;;;;16.60;14.63;;;;;;;14.06;40.74;95384.88;4834987;29;20040;-77
2021/03/04 08:13:52;;;;;;;16.90;15.10;;;;;;;14.37;40.03;95371.66;4846085;29;20047;-80
2021/03/04 08:16:17;;;;;;;18.88;15.90;;;;;;;12.74;43.61;95371.63;4863376;29;20025;-82
2021/03/04 08:18:45;;;;;;;21.10;17.05;;;;;;;13.72;42.28;95377.59;4856144;29;20037;-81
2021/03/04 08:21:10;;;;;;;22.27;16.77;;;;;;;14.42;40.17;95370.09;4853207;29;20052;-80
2021/03/04 08:23:43;;;;;;;19.88;17.58;;;;;;;12.77;42.24;95366.09;4838148;29;20491;-79
2021/03/04 08:26:27;;;;;;;18.90;15.75;;;;;;;14.35;39.67;95358.00;4842137;29;20041;-81
2021/03/04 08:29:05;;;;;;;20.95;17.85;;;;;;;14.33;41.25;95366.00;4826433;29;20041;-80
2021/03/04 08:31:32;;;;;;;21.48;17.67;;;;;;;13.80;42.48;95364.50;4853644;29;20402;-81
2021/03/04 08:33:57;;;;;;;19.20;15.90;;;;;;;14.62;39.70;95355.47;4848735;29;20029;-76
2021/03/04 08:36:23;;;;;;;20.05;16.17;;;;;;;14.60;39.22;95361.88;4876342;29;20033;-77
2021/03/04 08:38:48;;;;;;;23.65;17.02;;;;;;;15.25;38.82;95343.41;4864144;29;20042;-78
2021/03/04 08:41:21;;;;;;;18.27;16.38;;;;;;;15.55;37.70;95347.44;4846781;29;20503;-79
2021/03/04 08:43:47;;;;;;;22.08;16.60;;;;;;;15.49;37.67;95348.22;4864760;29;20021;-79
2021/03/04 08:46:12;;;;;;;20.05;17.30;;;;;;;15.96;36.30;95339.63;4832052;29;20033;-80
2021/03/04 08:48:47;;;;;;;20.70;16.92;;;;;;;16.19;37.50;95344.56;4838736;29;20036;-81
2021/03/04 08:51:13;;;;;;;18.38;15.45;;;;;;;15.86;36.96;95339.16;4840025;29;20097;-79
2021/03/04 08:53:38;;;;;;;20.92;16.33;;;;;;;16.46;36.21;95329.78;4837528;29;20503;-80
2021/03/04 08:56:05;;;;;;;19.70;15.27;;;;;;;13.84;39.79;95323.31;4839455;29;20060;-80
2021/03/04 08:58:32;;;;;;;19.45;15.30;;;;;;;14.76;38.18;95331.16;4847185;29;20033;-79
2021/03/04 09:01:04;;;;;;;18.10;15.55;;;;;;;16.72;35.62;95320.22;4849010;29;20736;-79
2021/03/04 09:03:33;;;;;;;17.77;14.75;;;;;;;17.46;34.57;95311.34;4861999;29;20079;-78
2021/03/04 09:06:10;;;;;;;16.23;14.50;;;;;;;15.22;36.34;95315.06;4852899;29;20927;-79
2021/03/04 09:08:37;;;;;;;25.17;19.13;;;;;;;14.64;37.79;95308.38;4856939;29;20064;-77
2021/03/04 09:11:03;;;;;;;15.93;13.38;;;;;;;16.96;34.08;95297.88;4852875;29;20120;-77
2021/03/04 09:13:28;;;;;;;14.07;12.52;;;;;;;17.68;32.97;95299.63;4854101;29;20067;-78
2021/03/04 09:15:59;;;;;;;14.27;12.88;;;;;;;17.39;33.15;95301.69;4838986;29;20032;-77
2021/03/04 09:18:24;;;;;;;14.15;12.50;;;;;;;18.14;32.23;95302.09;4854503;29;20027;-77
2021/03/04 09:20:53;;;;;;;13.25;11.93;;;;;;;17.45;32.37;95294.00;4856467;29;20407;-77
2021/03/04 09:23:19;;;;;;;15.90;11.75;;;;;;;16.50;35.25;95299.63;4852359;29;20491;-78
2021/03/04 09:25:45;;;;;;;12.43;11.23;;;;;;;18.31;32.58;95296.16;4863157;29;20104;-77
2021/03/04 09:28:14;;;;;;;12.57;11.32;;;;;;;17.93;32.51;95295.31;4794716;29;20054;-77
2021/03/04 09:30:40;;;;;;;17.85;14.25;;;;;;;16.42;35.10;95286.72;4768621;29;20041;-77
2021/03/04 09:33:21;;;;;;;18.88;13.18;;;;;;;18.54;32.31;95279.91;4830393;29;20038;-77
2021/03/04 09:35:55;;;;;;;15.27;13.32;;;;;;;18.73;32.08;95270.28;4811553;29;20090;-77
2021/03/04 09:38:21;;;;;;;15.13;12.90;;;;;;;17.75;32.96;95272.41;4826393;29;20034;-76
2021/03/04 09:40:46;;;;;;;13.43;12.27;;;;;;;18.99;31.45;95267.47;4831930;29;20034;-77
2021/03/04 09:43:16;;;;;;;13.68;12.45;;;;;;;17.36;35.16;95275.91;4820515;29;20532;-77
2021/03/04 09:45:49;;;;;;;13.52;12.07;;;;;;;17.24;34.79;95261.03;4801600;29;20061;-77
2021/03/04 09:48:14;;;;;;;12.70;11.48;;;;;;;17.71;32.70;95257.31;4805028;29;20025;-77
2021/03/04 09:50:50;;;;;;;11.27;10.18;;;;;;;14.87;35.13;95248.16;4805387;29;20432;-77
2021/03/04 09:53:17;;;;;;;12.13;10.77;;;;;;;17.70;33.29;95253.06;4802357;29;20496;-77
2021/03/04 09:55:42;;;;;;;11.07;9.98;;;;;;;16.22;33.92;95245.66;4805348;29;20026;-78
2021/03/04 09:58:12;;;;;;;14.60;13.05;;;;;;;14.37;36.39;95242.16;4802042;29;20095;-78
2021/03/04 10:00:38;;;;;;;13.77;10.90;;;;;;;17.80;34.57;95241.13;4819769;29;20082;-76
2021/03/04 10:03:13;;;;;;;12.05;10.95;;;;;;;18.59;32.54;95232.06;4803732;29;20050;-76
2021/03/04 10:05:50;;;;;;;12.02;10.90;;;;;;;18.73;30.41;95225.69;4802944;29;20046;-77
2021/03/04 10:08:16;;;;;;;11.75;10.60;;;;;;;19.25;29.41;95225.22;4819915;29;20486;-78
2021/03/04 10:10:42;;;;;;;11.65;10.57;;;;;;;19.69;30.02;95225.97;4802588;29;20029;-78
2021/03/04 10:13:08;;;;;;;13.85;12.57;;;;;;;19.56;29.25;95226.13;4819964;29;20041;-78
2021/03/04 10:15:38;;;;;;;14.10;12.07;;;;;;;14.48;38.40;95222.63;4834008;29;20037;-78
2021/03/04 10:18:13;;;;;;;12.13;11.00;;;;;;;14.70;34.85;95219.75;4810710;29;20129;-78
2021/03/04 10:20:41;;;;;;;12.80;11.20;;;;;;;15.81;33.86;95213.59;4841178;29;20301;-77
2021/03/04 10:23:07;;;;;;;13.85;10.98;;;;;;;15.64;33.70;95201.84;4824291;29;20179;-78
2021/03/04 10:25:32;;;;;;;15.07;11.43;;;;;;;14.75;34.73;95193.13;4811852;29;20482;-77
2021/03/04 10:27:59;;;;;;;13.13;11.70;;;;;;;15.83;34.53;95188.88;4820101;29;20069;-76
2021/03/04 10:30:24;;;;;;;15.98;11.98;;;;;;;13.56;38.30;95182.59;4803746;29;20033;-79
2021/03/04 10:32:50;;;;;;;16.73;11.15;;;;;;;15.63;36.02;95174.97;4817586;29;20041;-78
2021/03/04 10:35:16;;;;;;;11.93;10.77;;;;;;;16.95;33.08;95172.47;4819647;29;20090;-76
2021/03/04 10:37:41;;;;;;;12.45;11.05;;;;;;;17.64;32.64;95164.81;4818315;29;20038;-75
2021/03/04 10:40:08;;;;;;;13.20;10.80;;;;;;;17.03;31.45;95164.41;4819278;29;20034;-75
2021/03/04 10:42:34;;;;;;;12.15;10.73;;;;;;;14.30;35.94;95149.25;4804106;29;20106;-79
2021/03/04 10:45:00;;;;;;;14.88;11.43;;;;;;;15.40;35.52;95150.94;4802028;29;20038;-78
2021/03/04 10:47:28;;;;;;;12.02;10.32;;;;;;;16.12;34.04;95145.91;4818102;29;20023;-75
2021/03/04 10:49:55;;;;;;;12.50;10.77;;;;;;;14.03;36.58;95136.00;4802210;29;20033;-78
2021/03/04 10:52:20;;;;;;;10.82;9.80;;;;;;;14.80;35.30;95143.03;4803398;29;20034;-78
2021/03/04 10:54:46;;;;;;;10.93;9.85;;;;;;;15.56;35.36;95136.78;4832048;29;20026;-78
2021/03/04 10:57:11;;;;;;;14.20;10.05;;;;;;;14.57;34.90;95138.06;4819532;29;20105;-79
2021/03/04 10:59:37;;;;;;;14.02;10.13;;;;;;;14.87;34.71;95118.59;4833772;29;20158;-78
2021/03/04 11:02:02;;;;;;;15.35;11.52;;;;;;;14.82;35.17;95123.59;4818299;29;20543;-78
2021/03/04 11:04:28;;;;;;;12.82;10.35;;;;;;;13.97;36.00;95117.72;4818663;29;20046;-79
2021/03/04 11:06:53;;;;;;;14.68;11.48;;;;;;;14.75;35.81;95118.31;4817254;29;20515;-78
2021/03/04 11:09:19;;;;;;;14.93;10.73;;;;;;;15.53;35.42;95117.09;4837547;29;20041;-77
2021/03/04 11:11:44;;;;;;;12.90;11.50;;;;;;;16.01;34.39;95102.09;4835968;29;20038;-78
2021/03/04 11:14:10;;;;;;;11.98;10.77;;;;;;;15.85;35.74;95099.06;4822701;29;20677;-76
2021/03/04 11:16:35;;;;;;;15.18;10.73;;;;;;;16.13;33.68;95110.13;4820807;29;20038;-76
2021/03/04 11:19:01;;;;;;;16.15;11.30;;;;;;;15.16;36.03;95092.22;4838259;29;20510;-79
2021/03/04 11:21:26;;;;;;;20.70;11.35;;;;;;;14.68;34.77;95077.56;4822070;29;20416;-78
2021/03/04 11:23:52;;;;;;;16.73;11.65;;;;;;;15.55;34.23;95088.16;4819772;29;20029;-79
2021/03/04 11:26:17;;;;;;;14.18;11.63;;;;;;;14.68;34.40;95082.78;4838309;29;20535;-79
2021/03/04 11:28:43;;;;;;;16.20;12.73;;;;;;;14.74;35.38;95071.56;4837248;29;20054;-79
2021/03/04 11:31:08;;;;;;;16.95;11.65;;;;;;;16.52;33.53;95055.22;4808269;29;20036;-79
2021/03/04 11:33:34;;;;;;;13.82;11.90;;;;;;;15.49;33.64;95050.59;4821661;29;20042;-78
2021/03/04 11:35:59;;;;;;;13.55;12.15;;;;;;;15.34;35.01;95043.91;4845697;29;20081;-77
2021/03/04 11:38:25;;;;;;;12.05;10.77;;;;;;;15.50;34.80;95035.75;4813823;29;20614;-77
2021/03/04 11:40:50;;;;;;;14.93;11.23;;;;;;;16.06;34.14;95031.75;4827287;29;20033;-78
2021/03/04 11:43:16;;;;;;;16.60;11.85;;;;;;;15.20;35.38;95027.41;4845847;29;20026;-78
2021/03/04 11:45:41;;;;;;;13.07;11.68;;;;;;;15.60;35.05;95016.09;4842356;29;20030;-78
2021/03/04 11:48:07;;;;;;;68.72;47.05;;;;;;;16.95;35.16;95018.91;4830223;29;20048;-77
2021/03/04 11:50:33;;;;;;;12.25;8.73;;;;;;;17.54;31.45;94992.34;4847832;29;20727;-77
2021/03/04 11:52:58;;;;;;;11.95;10.75;;;;;;;17.48;30.85;94998.44;4816624;29;20218;-77
2021/03/04 11:55:24;;;;;;;10.45;8.90;;;;;;;16.66;32.27;94995.88;4828541;29;20038;-77
2021/03/04 11:57:49;;;;;;;11.32;9.88;;;;;;;17.47;31.36;94990.78;4822263;29;20038;-77
2021/03/04 12:00:15;;;;;;;13.70;10.60;;;;;;;17.98;31.64;94980.16;4837726;29;20094;-77
2021/03/04 12:02:40;;;;;;;14.18;10.85;;;;;;;17.60;32.65;94983.69;4839699;29;20049;-77
2021/03/04 12:05:06;;;;;;;15.57;10.18;;;;;;;17.88;31.50;94975.41;4839695;29;20041;-78
2021/03/04 12:07:32;;;;;;;12.10;10.90;;;;;;;17.25;31.44;94969.38;4776880;29;20055;-78
2021/03/04 12:09:58;;;;;;;25.17;18.38;;;;;;;16.88;33.73;94975.44;4778942;29;20061;-78
2021/03/04 12:12:25;;;;;;;15.70;10.93;;;;;;;17.28;31.52;94969.78;4819232;29;20037;-78
2021/03/04 12:14:50;;;;;;;11.32;10.00;;;;;;;16.95;30.69;94958.72;4836289;29;20034;-79
2021/03/04 12:17:16;;;;;;;13.35;9.70;;;;;;;17.44;32.68;94967.66;4851442;29;20030;-77
2021/03/04 12:19:41;;;;;;;13.65;10.15;;;;;;;17.74;31.09;94960.81;4834682;29;20556;-79
2021/03/04 12:22:07;;;;;;;13.52;11.18;;;;;;;17.02;31.31;94951.59;4847518;29;20457;-79
2021/03/04 12:24:32;;;;;;;15.27;9.57;;;;;;;17.30;32.94;94946.81;4840901;29;20048;-78
2021/03/04 12:26:58;;;;;;;10.98;9.98;;;;;;;17.63;31.61;94936.09;4851951;29;20022;-78
2021/03/04 12:29:23;;;;;;;13.80;9.63;;;;;;;17.62;31.18;94939.75;4853304;29;20416;-78
2021/03/04 12:31:49;;;;;;;12.93;9.95;;;;;;;16.66;30.55;94928.63;4870185;29;20117;-79
2021/03/04 12:34:14;;;;;;;15.40;9.93;;;;;;;16.95;31.84;94929.94;4868547;29;20034;-77
2021/03/04 12:36:40;;;;;;;12.23;10.07;;;;;;;17.22;31.51;94930.53;4854466;29;20032;-76
2021/03/04 12:39:05;;;;;;;14.15;10.63;;;;;;;17.62;31.24;94916.19;4855077;29;20036;-76
2021/03/04 12:41:31;;;;;;;14.45;10.63;;;;;;;16.37;32.45;94915.28;4868952;29;20032;-78
2021/03/04 12:43:56;;;;;;;12.15;10.43;;;;;;;16.78;30.75;94911.31;4854666;29;20070;-76
2021/03/04 12:46:23;;;;;;;10.88;9.80;;;;;;;17.61;32.15;94913.75;4831337;29;20036;-75
2021/03/04 12:48:48;;;;;;;13.13;9.35;;;;;;;17.94;30.59;94901.16;4836372;29;20073;-76
2021/03/04 12:51:14;;;;;;;12.23;9.57;;;;;;;18.22;30.65;94905.91;4848994;29;20048;-76
2021/03/04 12:53:39;;;;;;;15.93;9.82;;;;;;;18.23;30.96;94897.81;4851490;29;20045;-76
2021/03/04 12:56:05;;;;;;;15.68;9.52;;;;;;;18.45;30.30;94900.78;4850103;29;20461;-77
2021/03/04 12:58:30;;;;;;;12.93;9.32;;;;;;;18.12;30.97;94897.75;4836728;29;20408;-76
2021/03/04 13:00:56;;;;;;;9.82;8.68;;;;;;;18.39;30.03;94893.81;4820654;29;20412;-77
2021/03/04 13:03:21;;;;;;;11.80;9.52;;;;;;;18.51;29.67;94897.31;4832594;29;20053;-77
2021/03/04 13:05:47;;;;;;;11.07;9.95;;;;;;;18.79;30.22;94889.69;4818378;29;20046;-77
2021/03/04 13:08:12;;;;;;;13.45;9.63;;;;;;;18.40;30.03;94888.34;4815484;29;20031;-76
2021/03/04 13:10:38;;;;;;;16.92;9.07;;;;;;;18.24;30.66;94883.69;4817340;29;20022;-76
2021/03/04 13:13:03;;;;;;;13.30;9.70;;;;;;;18.62;29.96;94874.78;4815613;29;20046;-76
2021/03/04 13:15:29;;;;;;;13.25;10.38;;;;;;;18.19;30.84;94883.53;4831675;29;20039;-76
2021/03/04 13:17:55;;;;;;;9.73;8.73;;;;;;;18.54;30.11;94875.09;4817741;29;20054;-78
2021/03/04 13:20:21;;;;;;;10.10;9.07;;;;;;;18.49;30.28;94867.06;4815810;29;20030;-77
2021/03/04 13:22:47;;;;;;;12.07;9.27;;;;;;;18.55;30.36;94874.06;4805804;29;20038;-78
2021/03/04 13:25:13;;;;;;;16.50;11.90;;;;;;;18.42;30.58;94867.13;4798491;29;20046;-78
2021/03/04 13:27:38;;;;;;;10.60;9.60;;;;;;;18.41;29.42;94858.47;4832642;29;20030;-78
2021/03/04 13:30:07;;;;;;;15.50;11.25;;;;;;;18.69;30.21;94857.91;4816020;29;20030;-77
2021/03/04 13:32:32;;;;;;;15.80;10.00;;;;;;;18.68;29.73;94853.72;4817333;29;20061;-77
2021/03/04 13:34:58;;;;;;;18.38;9.77;;;;;;;18.27;30.13;94853.59;4830434;29;20027;-77
2021/03/04 13:37:23;;;;;;;19.73;10.18;;;;;;;18.57;30.07;94851.03;4817864;29;20022;-77
2021/03/04 13:39:48;;;;;;;13.07;9.57;;;;;;;18.34;29.72;94843.81;4815061;29;20126;-78
2021/03/04 13:42:14;;;;;;;12.07;9.60;;;;;;;18.64;30.89;94841.25;4798393;29;20026;-77
2021/03/04 13:44:39;;;;;;;13.25;9.30;;;;;;;17.88;30.93;94839.91;4830595;29;20424;-77
2021/03/04 13:47:05;;;;;;;11.88;10.15;;;;;;;18.68;29.98;94831.91;4799385;29;20035;-77
2021/03/04 13:49:30;;;;;;;12.10;9.55;;;;;;;17.92;29.55;94832.41;4819453;29;20146;-78
2021/03/04 13:51:56;;;;;;;10.75;8.98;;;;;;;18.06;30.03;94836.50;4816152;29;20396;-78
2021/03/04 13:54:21;;;;;;;16.77;10.48;;;;;;;18.66;29.63;94823.44;4817318;29;20034;-78
2021/03/04 13:56:47;;;;;;;15.43;10.55;;;;;;;18.39;29.71;94813.31;4801835;29;20039;-77
2021/03/04 13:59:12;;;;;;;14.45;10.00;;;;;;;18.24;29.91;94819.94;4814935;29;20553;-77
2021/03/04 14:01:38;;;;;;;11.45;8.75;;;;;;;18.08;29.82;94817.91;4832114;29;20050;-76
2021/03/04 14:04:03;;;;;;;8.88;7.97;;;;;;;18.16;29.93;94813.19;4815785;29;20142;-77
2021/03/04 14:06:29;;;;;;;8.55;7.63;;;;;;;18.17;29.80;94814.78;4818160;29;20038;-77
2021/03/04 14:08:55;;;;;;;13.15;9.13;;;;;;;18.39;28.89;94810.69;4816252;29;20041;-77
2021/03/04 14:11:21;;;;;;;12.30;8.65;;;;;;;18.26;28.50;94803.00;4817207;29;20086;-77
2021/03/04 14:13:47;;;;;;;11.15;8.77;;;;;;;18.21;29.36;94808.06;4817660;29;20026;-78
2021/03/04 14:16:12;;;;;;;10.82;8.93;;;;;;;18.31;29.98;94800.50;4816006;29;20042;-77
2021/03/04 14:18:38;;;;;;;12.00;8.60;;;;;;;18.00;29.50;94800.69;4817608;29;20045;-77
2021/03/04 14:21:03;;;;;;;11.38;8.95;;;;;;;17.92;30.18;94798.34;4816713;29;20509;-77
2021/03/04 14:23:29;;;;;;;8.98;8.07;;;;;;;18.33;28.97;94797.66;4817518;29;20039;-77
2021/03/04 14:25:55;;;;;;;11.70;8.13;;;;;;;18.22;29.63;94799.19;4815475;29;20038;-78
2021/03/04 14:28:20;;;;;;;11.68;8.00;;;;;;;18.30;28.62;94790.25;4831327;29;20037;-78
2021/03/04 14:30:45;;;;;;;10.70;7.97;;;;;;;17.99;29.27;94790.41;4816240;29;20450;-77
2021/03/04 14:33:11;;;;;;;13.35;8.80;;;;;;;18.55;28.83;94788.31;4816215;29;20042;-77
2021/03/04 14:35:36;;;;;;;15.45;9.40;;;;;;;17.78;29.61;94789.06;4817942;29;20501;-77
2021/03/04 14:38:02;;;;;;;14.55;8.65;;;;;;;17.84;29.50;94785.56;4830589;29;20103;-78
2021/03/04 14:40:27;;;;;;;12.35;10.38;;;;;;;17.82;29.37;94780.53;4832610;29;20038;-77
2021/03/04 14:42:53;;;;;;;11.38;9.02;;;;;;;17.93;29.27;94773.75;4815919;29;20031;-77
2021/03/04 14:45:18;;;;;;;94.07;13.27;;;;;;;18.26;29.24;94768.91;4835008;29;20030;-77
2021/03/04 14:47:44;;;;;;;20.67;8.80;;;;;;;18.31;29.16;94766.41;4819030;29;20843;-77
2021/03/04 14:50:09;;;;;;;10.73;7.82;;;;;;;18.24;28.75;94767.50;4835580;29;20672;-77
2021/03/04 14:52:35;;;;;;;11.40;8.40;;;;;;;18.22;29.13;94772.19;4833770;29;20037;-77
2021/03/04 14:55:01;;;;;;;13.25;8.25;;;;;;;18.17;29.15;94759.72;4820198;29;20030;-77
2021/03/04 14:57:26;;;;;;;15.32;8.88;;;;;;;18.23;29.82;94763.28;4819549;29;20062;-77
2021/03/04 14:59:52;;;;;;;12.75;8.05;;;;;;;18.20;29.25;94764.53;4817643;29;20423;-77
2021/03/04 15:02:17;;;;;;;12.13;8.07;;;;;;;18.07;29.31;94756.84;4828640;29;20058;-76
2021/03/04 15:04:43;;;;;;;10.13;7.53;;;;;;;17.94;28.60;94754.41;4836527;29;20037;-76
2021/03/04 15:07:08;;;;;;;10.63;7.50;;;;;;;17.81;28.68;94751.94;4839036;29;20033;-77
2021/03/04 15:09:34;;;;;;;10.32;7.03;;;;;;;17.73;28.73;94757.47;4821585;29;20042;-77
2021/03/04 15:11:59;;;;;;;14.50;10.70;;;;;;;17.32;29.32;94752.84;4839760;29;20484;-76
2021/03/04 15:14:25;;;;;;;11.35;10.23;;;;;;;17.53;30.02;94746.41;4837364;29;20109;-77
2021/03/04 15:16:50;;;;;;;14.88;10.75;;;;;;;17.22;30.40;94721.94;4846481;29;20103;-77
2021/03/04 15:19:16;;;;;;;21.10;10.98;;;;;;;17.36;29.97;94744.34;4836862;29;20033;-76
2021/03/04 15:21:43;;;;;;;11.10;7.75;;;;;;;17.38;29.63;94746.72;4836891;29;20030;-76
2021/03/04 15:24:09;;;;;;;16.63;13.25;;;;;;;17.36;29.62;94736.50;4838580;29;20431;-79
2021/03/04 15:26:34;;;;;;;13.15;9.40;;;;;;;17.26;30.87;94740.63;4851134;29;20090;-76
2021/03/04 15:29:00;;;;;;;19.10;11.27;;;;;;;16.97;33.35;94741.31;4838509;29;20424;-76
2021/03/04 15:31:25;;;;;;;12.13;9.07;;;;;;;16.73;34.08;94745.50;4836738;29;20030;-76
2021/03/04 15:33:50;;;;;;;13.98;8.25;;;;;;;16.45;33.61;94739.88;4836439;29;20033;-76
2021/03/04 15:36:16;;;;;;;11.32;8.10;;;;;;;16.29;34.21;94739.38;4852617;29;20026;-76
2021/03/04 15:38:42;;;;;;;16.75;14.60;;;;;;;16.13;35.61;94749.53;4834358;29;20032;-76
2021/03/04 15:41:07;;;;;;;15.85;10.85;;;;;;;15.92;36.19;94742.81;4827200;29;20026;-76
2021/03/04 15:43:33;;;;;;;14.65;9.20;;;;;;;15.71;36.19;94736.06;4831874;29;20030;-77
2021/03/04 15:45:58;;;;;;;15.93;9.35;;;;;;;15.46;37.27;94742.94;4838608;29;20774;-77
2021/03/04 15:48:24;;;;;;;13.95;11.48;;;;;;;15.30;38.17;94732.97;4820533;29;20112;-77
2021/03/04 15:50:49;;;;;;;19.08;9.68;;;;;;;15.07;38.37;94736.03;4853155;29;20040;-78
2021/03/04 15:53:15;;;;;;;16.38;9.65;;;;;;;14.79;38.98;94730.25;4838319;29;20116;-77
2021/03/04 15:55:41;;;;;;;14.18;11.60;;;;;;;14.59;39.26;94735.47;4831813;29;20026;-76
2021/03/04 15:58:06;;;;;;;14.98;10.38;;;;;;;14.08;41.51;94731.75;4837881;29;20034;-80
2021/03/04 16:00:31;;;;;;;12.88;9.02;;;;;;;13.77;41.80;94734.91;4819290;29;20043;-77
2021/03/04 16:02:57;;;;;;;15.20;8.05;;;;;;;13.44;42.51;94733.97;4852686;29;20583;-80
2021/03/04 16:05:22;;;;;;;14.48;7.53;;;;;;;13.11;43.27;94733.78;4855137;29;20491;-77
2021/03/04 16:07:48;;;;;;;19.45;8.85;;;;;;;12.95;42.98;94728.84;4840612;29;20018;-77
2021/03/04 16:10:13;;;;;;;12.68;8.75;;;;;;;12.62;43.45;94728.63;4837908;29;20079;-79
2021/03/04 16:12:39;;;;;;;9.48;7.55;;;;;;;12.58;42.67;94740.41;4836533;29;20038;-78
2021/03/04 16:15:05;;;;;;;19.95;8.07;;;;;;;12.41;43.04;94736.44;4839355;29;20038;-78
2021/03/04 16:17:31;;;;;;;12.15;9.13;;;;;;;12.20;43.50;94731.28;4837531;29;20033;-80
2021/03/04 16:19:56;;;;;;;12.20;8.32;;;;;;;12.07;43.65;94737.16;4843393;29;20117;-78
2021/03/04 16:22:22;;;;;;;30.65;9.52;;;;;;;11.77;44.47;94733.03;4840441;29;20556;-78
2021/03/04 16:24:47;;;;;;;14.05;8.70;;;;;;;11.73;44.00;94732.59;4841541;29;20072;-77
2021/03/04 16:27:13;;;;;;;13.52;8.40;;;;;;;11.39;45.39;94740.16;4857534;29;20514;-78
2021/03/04 16:29:38;;;;;;;17.90;10.27;;;;;;;11.25;45.72;94743.53;4822377;29;20171;-78
2021/03/04 16:32:04;;;;;;;30.63;18.00;;;;;;;11.16;45.93;94745.44;4843919;29;20037;-77
2021/03/04 16:34:31;;;;;;;25.08;14.98;;;;;;;11.18;45.53;94737.47;4843728;29;20038;-77
2021/03/04 16:36:57;;;;;;;23.70;16.02;;;;;;;10.99;46.14;94749.19;4840567;29;20034;-77
2021/03/04 16:39:23;;;;;;;20.20;14.73;;;;;;;10.81;46.87;94746.94;4837757;29;20085;-77
2021/03/04 16:41:49;;;;;;;14.30;8.88;;;;;;;10.75;46.49;94747.66;4839734;29;20044;-75
2021/03/04 16:44:14;;;;;;;14.38;7.38;;;;;;;10.64;46.67;94747.25;4854216;29;20064;-76
2021/03/04 16:46:40;;;;;;;21.63;8.63;;;;;;;10.24;47.86;94743.25;4866000;29;20617;-77
2021/03/04 16:49:06;;;;;;;9.27;6.65;;;;;;;10.25;47.16;94753.41;4842112;29;20124;-77
2021/03/04 16:51:32;;;;;;;15.02;7.53;;;;;;;10.25;47.28;94747.44;4829058;29;20508;-77
2021/03/04 16:53:57;;;;;;;10.45;7.03;;;;;;;10.28;47.05;94750.47;4841353;29;20029;-77
2021/03/04 16:56:23;;;;;;;9.85;8.85;;;;;;;10.11;47.55;94743.81;4847501;29;20029;-78
2021/03/04 16:58:48;;;;;;;12.35;9.93;;;;;;;10.14;46.99;94756.44;4848210;29;20033;-78
2021/03/04 17:01:14;;;;;;;25.33;17.42;;;;;;;9.85;47.56;94751.91;4860916;29;20029;-79
2021/03/04 17:03:40;;;;;;;13.30;11.48;;;;;;;9.80;47.94;94759.34;4859045;29;20542;-80
2021/03/04 17:06:06;;;;;;;12.27;9.07;;;;;;;9.79;48.19;94759.53;4858755;29;20069;-79
2021/03/04 17:08:32;;;;;;;11.27;8.20;;;;;;;9.65;48.65;94747.31;4852715;29;20034;-79
2021/03/04 17:10:58;;;;;;;46.20;24.63;;;;;;;9.97;46.23;94747.94;4835137;29;20061;-79
2021/03/04 17:13:23;;;;;;;29.15;22.40;;;;;;;9.78;47.73;94752.75;4830834;29;20022;-80
2021/03/04 17:15:49;;;;;;;38.80;24.60;;;;;;;9.61;48.12;94754.59;4836188;29;20042;-79
2021/03/04 17:18:16;;;;;;;41.28;26.75;;;;;;;9.54;47.95;94743.31;4820918;29;20064;-80
2021/03/04 17:20:45;;;;;;;39.63;24.00;;;;;;;9.59;48.10;94758.34;4825302;29;20153;-80